»·PEaware :: N87UP KLAX-KSAN

N87UP :: KLAX-KSAN

FLIGHT INFORMATION

Flight Status: Arrived
Operator: Privately registered:
United States
More flights under this callsign
Pilot: Nathan B. (19040)
Aircraft: BEECH AIRCRAFT BARON
(BE58)
More flights by this aircraft type
Origin: KLAX Los Angeles Intl
United States
Destination: KSAN San Diego Intl-Lindbergh
United States
More flights between these airports :: More routes between these airports
Route: + HERMO V25 FERMY ALBAS MINOE PACIF REDIN MZB
File this flight plan on PilotEdge
Remarks:
Altitude:
(Current/Filed)
7,500ft
Speed:
(Current/Filed)
150kts
Departed: 08-May-18 12:50 PM
Arrived: 08-May-18 01:35 PM
Distance/Time
Traveled:
95nm/0:45
Distance/Time
To Go:
Arrived

Flight Plot

Page will automatically refresh every two minutes.

Flight plan parsing failed; only flown route is shown


Map Options




Map Legend


Flown Route
Filed Route
Departure Airport
Arrival Airport
Navaid (VOR, NDB)
Fix

Horizontal Profiles

Position Reports

Time Latitude Longitude Heading Altitude Ground
Speed
08-May-18 12:16 33.932254 -118.393981 0 101ft 0kts
08-May-18 12:17 33.932254 -118.393981 359 101ft 0kts
08-May-18 12:18 33.932254 -118.393981 359 101ft 0kts
08-May-18 12:18 33.932254 -118.393981 359 101ft 0kts
08-May-18 12:19 33.932254 -118.393981 359 101ft 0kts
08-May-18 12:20 33.932254 -118.393981 359 101ft 0kts
08-May-18 12:21 33.932254 -118.393981 359 101ft 0kts
08-May-18 12:22 33.932254 -118.393981 359 101ft 0kts
08-May-18 12:23 33.932254 -118.393981 359 101ft 0kts
08-May-18 12:25 33.932254 -118.393981 359 101ft 0kts
08-May-18 12:26 33.932254 -118.393981 359 101ft 0kts
08-May-18 12:27 33.932254 -118.393981 359 101ft 0kts
08-May-18 12:28 33.932254 -118.393981 359 101ft 0kts
08-May-18 12:29 33.933162 -118.393960 12 100ft 14kts
08-May-18 12:30 33.935317 -118.390640 82 99ft 19kts
08-May-18 12:31 33.935930 -118.384704 83 96ft 18kts
08-May-18 12:32 33.936496 -118.382775 2 93ft 0kts
08-May-18 12:33 33.936496 -118.382775 2 93ft 0kts
08-May-18 12:34 33.936496 -118.382775 2 93ft 0kts
08-May-18 12:35 33.936496 -118.382775 2 93ft 0kts
08-May-18 12:36 33.936496 -118.382775 2 93ft 0kts
08-May-18 12:37 33.936496 -118.382775 2 93ft 0kts
08-May-18 12:41 33.933721 -118.394263 89 101ft 0kts
08-May-18 12:42 33.933721 -118.394263 89 101ft 0kts
08-May-18 12:43 33.933721 -118.394263 89 101ft 0kts
08-May-18 12:44 33.933721 -118.394263 89 101ft 0kts
08-May-18 12:45 33.933721 -118.394263 89 101ft 0kts
08-May-18 12:46 33.935284 -118.391010 83 99ft 28kts
08-May-18 12:47 33.936069 -118.383275 80 93ft 16kts
08-May-18 12:48 33.936472 -118.382782 9 93ft 0kts
08-May-18 12:49 33.937265 -118.383671 264 93ft 0kts
08-May-18 12:50 33.934080 -118.412658 262 472ft 134kts
08-May-18 12:51 33.928585 -118.460773 262 902ft 147kts
08-May-18 12:52 33.917847 -118.505477 205 1463ft 143kts
08-May-18 12:53 33.880010 -118.501833 171 2197ft 134kts
08-May-18 12:54 33.845355 -118.488671 141 2874ft 133kts
08-May-18 12:55 33.813187 -118.457707 141 2911ft 158kts
08-May-18 12:56 33.778567 -118.424343 141 2909ft 161kts
08-May-18 12:57 33.743502 -118.390552 141 2909ft 161kts
08-May-18 12:58 33.712559 -118.351902 129 2909ft 161kts
08-May-18 12:59 33.684274 -118.310011 127 2937ft 159kts
08-May-18 13:00 33.660275 -118.271886 127 3765ft 138kts
08-May-18 13:01 33.636233 -118.234522 127 4832ft 142kts
08-May-18 13:02 33.612053 -118.197095 127 5871ft 142kts
08-May-18 13:03 33.587904 -118.159741 127 6857ft 141kts
08-May-18 13:04 33.563261 -118.121641 127 7430ft 161kts
08-May-18 13:05 33.533938 -118.076465 127 7420ft 176kts
08-May-18 13:06 33.512448 -118.024728 101 7419ft 178kts
08-May-18 13:07 33.496967 -117.969442 137 7418ft 178kts
08-May-18 13:08 33.459891 -117.930256 138 7419ft 178kts
08-May-18 13:09 33.422657 -117.891118 138 7419ft 178kts
08-May-18 13:10 33.385366 -117.851987 138 7419ft 178kts
08-May-18 13:11 33.348066 -117.812891 138 7419ft 178kts
08-May-18 13:12 33.310750 -117.773808 138 7419ft 178kts
08-May-18 13:13 33.273391 -117.734726 138 7419ft 178kts
08-May-18 13:14 33.236106 -117.695773 138 7419ft 178kts
08-May-18 13:15 33.198720 -117.656728 138 7419ft 178kts
08-May-18 13:16 33.161277 -117.617753 138 7410ft 178kts
08-May-18 13:17 33.123863 -117.578813 138 7409ft 178kts
08-May-18 13:18 33.086552 -117.540082 138 7408ft 175kts
08-May-18 13:19 33.052771 -117.501380 108 6942ft 172kts
08-May-18 13:20 33.046729 -117.451932 78 5734ft 123kts
08-May-18 13:21 33.048349 -117.407598 92 5634ft 146kts
08-May-18 13:22 33.033685 -117.364192 149 5629ft 138kts
08-May-18 13:23 33.010302 -117.331804 125 5630ft 125kts
08-May-18 13:24 32.988481 -117.299656 149 4881ft 126kts
08-May-18 13:25 32.959359 -117.278413 146 3085ft 128kts
08-May-18 13:26 32.928101 -117.261681 173 1293ft 110kts
08-May-18 13:27 32.896719 -117.254211 169 1306ft 119kts
08-May-18 13:28 32.860090 -117.244335 168 1299ft 133kts
08-May-18 13:29 32.825691 -117.235816 168 1303ft 121kts
08-May-18 13:30 32.793093 -117.227468 155 1303ft 118kts
08-May-18 13:31 32.764203 -117.208992 151 1305ft 118kts
08-May-18 13:32 32.741988 -117.184088 102 1303ft 113kts
08-May-18 13:33 32.734737 -117.146938 134 1308ft 117kts
08-May-18 13:34 32.729962 -117.175159 286 200ft 110kts
08-May-18 13:35 32.732424 -117.188549 194 12ft 0kts
08-May-18 13:36 32.732424 -117.188549 194 12ft 0kts
08-May-18 13:37 32.732284 -117.191095 276 12ft 0kts
08-May-18 13:38 32.732284 -117.191095 276 12ft 0kts

Navigation Log

Ident Type
Flight plan parsing failed, navigation log unavailable